Terminal Aerodrome Forecast
Issued by NWS Omaha/Valley, NE

Home | Current Version | Previous Version | Text Only | Print | Product List | Glossary Off
Versions: 1 2 3 4 5 6 7 8 9 10 11 12 13 14 15 16 17 18 19 20 21 22 23 24 25 26 27 28 29 30 31 32 33 34 35 36 37

000
FTUS43 KOAX 311720
TAFOFK
TAF
KOFK 311720Z 3118/0118 21008KT P6SM SCT070 BKN150
      TEMPO 3122/0101 VRB25KT 2SM +TSRA BKN025CB
     FM010100 35006KT 4SM -TSRA BKN040CB
     FM010400 32012KT P6SM SCT040 BKN200 PROB30 0104/0110 5SM -SHRA
      BKN050
     FM011000 32011KT P6SM BKN015
     FM011700 33010KT P6SM SCT025=

USA.gov is the U.S. government's official web portal to all federal, state and local government web resources and services.